Denson Spring, Texas
Current Conditions -  °F | °C
As of 4:35 PM on Tuesday 21 Oct 2014 (Local Time) from KDKR Reporting Station
Haze Haze  
Wind Chill: 82°   Ceiling: Unl
Heat Index: 84°   Visibility: 5mi
Dew Point: 64°   Wind: 5mph
Humidity: 54%   Direction: 90°E
Pressure: 30.05"   Gusts: NA
Location:  31.4982°N, 95.4177°W
Report Text: KDKR 212135Z AUTO 09004KT 5SM HZ FEW001 28/18 A3005 RMK AO2
Loading
Personal Weather Stations






























Interactive Weather Map
Tropical Storm Tracking
New forecast layout! Learn more

10-Day Weather Forecast

Advertisements
Track Severe Weather on mobile